Time;durP1;ratioP1;P1;durP2;ratioP2;P2;SDS_P1;SDS_P2;PMS_P1;PMS_P2;Temp;Humidity;BMP_temperature;BMP_pressure;BME280_temperature;BME280_humidity;BME280_pressure;Samples;Min_cycle;Max_cycle;Signal;HPM_P1;HPM_P2
2021/08/16 00:00:11;;;;;;;3.80;1.80;;;20.80;65.30;;;;;;5054602;28;20457;-71
2021/08/16 00:02:39;;;;;;;4.60;1.70;;;20.60;65.40;;;;;;5054502;28;20445;-71
2021/08/16 00:05:07;;;;;;;4.07;2.33;;;20.50;65.80;;;;;;5054986;28;20445;-71
2021/08/16 00:07:34;;;;;;;6.53;1.83;;;20.50;66.20;;;;;;5054537;28;20473;-71
2021/08/16 00:10:00;;;;;;;6.37;2.00;;;20.50;66.20;;;;;;5054664;28;20446;-71
2021/08/16 00:12:27;;;;;;;6.40;2.00;;;20.50;66.10;;;;;;5054558;28;20468;-71
2021/08/16 00:14:54;;;;;;;11.00;2.50;;;20.40;66.10;;;;;;5054444;28;20450;-71
2021/08/16 00:17:20;;;;;;;7.30;2.23;;;20.40;65.70;;;;;;5054613;28;20465;-71
2021/08/16 00:19:48;;;;;;;3.80;2.10;;;20.20;66.10;;;;;;5054024;28;20979;-71
2021/08/16 00:22:15;;;;;;;7.30;2.20;;;20.20;66.70;;;;;;5054376;28;20445;-71
2021/08/16 00:24:43;;;;;;;5.53;2.23;;;20.20;66.80;;;;;;5054292;28;20446;-71
2021/08/16 00:27:09;;;;;;;4.43;2.30;;;20.20;67.20;;;;;;5054196;28;20474;-71
2021/08/16 00:29:36;;;;;;;5.80;2.53;;;20.10;65.90;;;;;;5053871;28;20791;-71
2021/08/16 00:32:04;;;;;;;4.00;1.93;;;20.10;65.60;;;;;;5054170;28;20511;-71
2021/08/16 00:34:30;;;;;;;4.03;2.00;;;20.10;65.60;;;;;;5054174;28;20421;-71
2021/08/16 00:36:58;;;;;;;6.30;3.00;;;20.10;65.60;;;;;;5054111;28;20470;-71
2021/08/16 00:39:25;;;;;;;5.53;2.63;;;20.10;65.30;;;;;;5053112;28;20470;-70
2021/08/16 00:41:52;;;;;;;9.37;2.30;;;20.00;66.10;;;;;;5053919;28;20511;-71
2021/08/16 00:44:19;;;;;;;4.63;1.90;;;20.00;65.80;;;;;;5053880;28;20450;-71
2021/08/16 00:46:45;;;;;;;7.13;2.20;;;19.90;65.60;;;;;;5053803;28;20472;-71
2021/08/16 00:49:14;;;;;;;7.27;2.50;;;19.90;65.70;;;;;;5053837;28;20445;-71
2021/08/16 00:51:41;;;;;;;5.17;2.27;;;19.80;66.10;;;;;;5053866;28;20450;-71
2021/08/16 00:54:10;;;;;;;6.00;2.70;;;19.80;66.30;;;;;;5054671;28;20772;-71
2021/08/16 00:56:38;;;;;;;7.73;3.00;;;19.70;65.90;;;;;;5053675;28;20935;-71
2021/08/16 00:59:06;;;;;;;8.30;2.63;;;19.70;66.70;;;;;;5053460;28;20489;-71
2021/08/16 01:01:33;;;;;;;5.43;2.13;;;19.60;66.30;;;;;;5053953;28;20450;-71
2021/08/16 01:04:00;;;;;;;6.80;2.13;;;19.50;66.30;;;;;;5055267;28;20841;-71
2021/08/16 01:06:27;;;;;;;6.03;2.87;;;19.50;66.50;;;;;;5053880;28;20441;-71
2021/08/16 01:08:54;;;;;;;14.13;2.80;;;19.50;66.60;;;;;;5053552;28;20441;-71
2021/08/16 01:11:22;;;;;;;8.60;3.57;;;19.50;66.40;;;;;;5053725;28;20446;-71
2021/08/16 01:13:50;;;;;;;5.60;2.90;;;19.60;66.20;;;;;;5053508;28;20448;-71
2021/08/16 01:16:18;;;;;;;14.00;3.00;;;19.60;66.20;;;;;;5053549;28;20445;-71
2021/08/16 01:18:45;;;;;;;6.93;2.73;;;19.50;66.30;;;;;;5053332;28;20481;-71
2021/08/16 01:21:14;;;;;;;4.20;2.70;;;19.50;66.20;;;;;;5053476;28;20446;-71
2021/08/16 01:23:41;;;;;;;6.50;2.50;;;19.50;66.60;;;;;;5053102;28;20950;-71
2021/08/16 01:26:08;;;;;;;11.10;3.10;;;19.50;66.50;;;;;;5053378;28;20442;-71
2021/08/16 01:28:37;;;;;;;5.03;2.40;;;19.50;66.30;;;;;;5053559;28;20462;-71
2021/08/16 01:31:05;;;;;;;9.20;2.73;;;19.50;66.20;;;;;;5053477;28;20434;-71
2021/08/16 01:33:33;;;;;;;8.23;2.80;;;19.40;66.20;;;;;;5053591;28;20441;-71
2021/08/16 01:36:00;;;;;;;6.60;2.57;;;19.40;66.50;;;;;;5053009;28;20960;-71
2021/08/16 01:38:29;;;;;;;13.13;2.60;;;19.30;66.20;;;;;;5053250;28;20485;-71
2021/08/16 01:40:56;;;;;;;8.53;2.20;;;19.30;66.60;;;;;;5053302;28;20446;-71
2021/08/16 01:43:22;;;;;;;5.87;2.37;;;19.30;66.20;;;;;;5052973;28;20437;-71
2021/08/16 01:45:51;;;;;;;10.23;2.87;;;19.20;66.20;;;;;;5053276;28;20445;-71
2021/08/16 01:48:18;;;;;;;5.77;2.70;;;19.20;66.70;;;;;;5053390;28;20462;-70
2021/08/16 01:50:46;;;;;;;4.57;2.10;;;19.20;66.90;;;;;;5054763;28;20955;-70
2021/08/16 01:53:13;;;;;;;7.73;3.10;;;19.10;66.60;;;;;;5057140;28;20453;-70
2021/08/16 01:55:40;;;;;;;5.40;1.90;;;19.10;67.30;;;;;;5057147;28;20449;-70
2021/08/16 01:58:08;;;;;;;5.43;2.27;;;19.10;67.20;;;;;;5056962;28;20465;-70
2021/08/16 02:00:35;;;;;;;7.30;2.20;;;19.10;67.30;;;;;;5056612;28;20875;-70
2021/08/16 02:03:04;;;;;;;6.90;2.40;;;19.10;67.00;;;;;;5057069;28;20434;-70
2021/08/16 02:05:31;;;;;;;8.93;2.87;;;19.10;66.70;;;;;;5056632;28;20931;-70
2021/08/16 02:07:58;;;;;;;5.13;2.30;;;19.10;67.00;;;;;;5056476;28;20502;-70
2021/08/16 02:10:25;;;;;;;9.37;3.73;;;19.00;66.60;;;;;;5056800;28;20452;-70
2021/08/16 02:12:51;;;;;;;7.70;2.87;;;19.00;67.30;;;;;;5056813;28;20449;-70
2021/08/16 02:15:18;;;;;;;4.50;2.50;;;18.90;67.00;;;;;;5056781;28;20544;-70
2021/08/16 02:17:45;;;;;;;6.30;2.67;;;18.90;67.80;;;;;;5056627;28;20881;-71
2021/08/16 02:20:14;;;;;;;8.43;2.30;;;18.80;67.30;;;;;;5056588;28;20480;-70
2021/08/16 02:22:40;;;;;;;5.37;2.20;;;18.80;67.80;;;;;;5056651;28;20445;-70
2021/08/16 02:25:08;;;;;;;4.77;2.10;;;18.80;68.00;;;;;;5056888;28;20468;-70
2021/08/16 02:27:35;;;;;;;9.43;2.60;;;18.80;68.30;;;;;;5056475;28;20465;-70
2021/08/16 02:30:02;;;;;;;6.53;2.30;;;18.80;67.50;;;;;;5056562;28;20449;-70
2021/08/16 02:32:28;;;;;;;5.80;1.93;;;18.90;67.80;;;;;;5056412;28;20445;-70
2021/08/16 02:34:55;;;;;;;7.20;2.20;;;18.90;67.80;;;;;;5056118;28;20816;-70
2021/08/16 02:37:23;;;;;;;4.13;2.23;;;18.90;67.70;;;;;;5056532;28;20461;-70
2021/08/16 02:39:50;;;;;;;6.57;2.70;;;18.80;67.80;;;;;;5056302;28;20843;-70
2021/08/16 02:42:16;;;;;;;5.60;2.23;;;18.80;68.30;;;;;;5056269;28;20495;-70
2021/08/16 02:44:45;;;;;;;5.50;2.17;;;18.80;68.10;;;;;;5056277;28;20446;-70
2021/08/16 02:47:11;;;;;;;5.67;2.40;;;18.80;68.30;;;;;;5055880;28;21049;-70
2021/08/16 02:49:38;;;;;;;7.70;2.40;;;18.80;68.30;;;;;;5056413;28;20445;-70
2021/08/16 02:52:06;;;;;;;6.80;2.67;;;18.70;68.50;;;;;;5056175;28;20441;-70
2021/08/16 02:54:34;;;;;;;5.07;2.90;;;18.70;69.20;;;;;;5055975;28;20451;-70
2021/08/16 02:57:01;;;;;;;9.17;2.07;;;18.70;69.50;;;;;;5056906;28;20468;-70
2021/08/16 02:59:28;;;;;;;6.63;3.00;;;18.70;69.10;;;;;;5055739;28;20512;-70
2021/08/16 03:01:54;;;;;;;7.23;3.30;;;18.70;69.60;;;;;;5054942;28;20446;-70
2021/08/16 03:04:21;;;;;;;5.90;2.40;;;18.70;69.80;;;;;;5055861;28;20831;-71
2021/08/16 03:06:48;;;;;;;6.87;2.53;;;18.70;70.10;;;;;;5055654;28;20470;-70
2021/08/16 03:09:14;;;;;;;4.57;2.70;;;18.70;70.50;;;;;;5055985;28;20438;-70
2021/08/16 03:11:43;;;;;;;6.90;2.63;;;18.60;70.60;;;;;;5055699;28;20951;-70
2021/08/16 03:14:10;;;;;;;7.33;2.33;;;18.60;71.20;;;;;;5055656;28;20499;-70
2021/08/16 03:16:37;;;;;;;7.23;2.77;;;18.70;71.10;;;;;;5055411;28;20456;-71
2021/08/16 03:19:03;;;;;;;8.30;2.63;;;18.60;71.30;;;;;;5055149;28;20473;-70
2021/08/16 03:21:30;;;;;;;5.73;2.77;;;18.60;71.10;;;;;;5055560;28;20437;-71
2021/08/16 03:23:57;;;;;;;7.30;2.53;;;18.50;71.20;;;;;;5055451;28;20458;-70
2021/08/16 03:26:23;;;;;;;7.67;2.70;;;18.50;71.40;;;;;;5054993;28;20446;-70
2021/08/16 03:28:51;;;;;;;7.43;2.40;;;18.60;71.70;;;;;;5055365;28;20871;-70
2021/08/16 03:31:19;;;;;;;5.03;2.80;;;18.60;71.70;;;;;;5055548;28;20450;-70
2021/08/16 03:33:46;;;;;;;5.67;2.30;;;18.60;72.30;;;;;;5055014;28;20944;-70
2021/08/16 03:36:12;;;;;;;8.67;2.47;;;18.60;72.60;;;;;;5055325;28;20452;-70
2021/08/16 03:38:39;;;;;;;8.33;2.77;;;18.50;72.10;;;;;;5055051;28;20519;-71
2021/08/16 03:41:06;;;;;;;6.60;2.47;;;18.60;72.40;;;;;;5055162;28;20449;-71
2021/08/16 03:43:33;;;;;;;10.70;2.00;;;18.60;72.30;;;;;;5055152;28;20430;-71
2021/08/16 03:46:01;;;;;;;3.63;1.70;;;18.60;72.40;;;;;;5054708;28;20445;-70
2021/08/16 03:48:28;;;;;;;8.80;3.40;;;18.60;73.20;;;;;;5054915;28;20457;-71
2021/08/16 03:50:55;;;;;;;6.90;2.60;;;18.60;73.10;;;;;;5054924;28;20455;-70
2021/08/16 03:53:21;;;;;;;6.00;2.70;;;18.50;72.90;;;;;;5054837;28;20441;-70
2021/08/16 03:55:49;;;;;;;6.80;3.00;;;18.50;73.30;;;;;;5055922;28;20802;-71
2021/08/16 03:58:15;;;;;;;4.80;2.67;;;18.50;73.60;;;;;;5054642;28;21014;-70
2021/08/16 04:00:42;;;;;;;7.93;2.67;;;18.50;73.60;;;;;;5054413;28;20493;-70
2021/08/16 04:03:11;;;;;;;3.90;2.20;;;18.50;74.00;;;;;;5054473;28;20904;-70
2021/08/16 04:05:38;;;;;;;10.90;2.87;;;18.50;74.50;;;;;;5054693;28;20540;-70
2021/08/16 04:08:05;;;;;;;5.30;2.80;;;18.50;74.10;;;;;;5054271;28;20523;-70
2021/08/16 04:10:32;;;;;;;6.30;2.00;;;18.60;73.80;;;;;;5054603;28;20449;-70
2021/08/16 04:12:59;;;;;;;4.97;2.00;;;18.60;74.00;;;;;;5054412;28;20457;-70
2021/08/16 04:15:26;;;;;;;12.67;3.07;;;18.60;74.10;;;;;;5054474;28;20449;-70
2021/08/16 04:17:52;;;;;;;10.00;2.67;;;18.60;74.30;;;;;;5054368;28;20472;-70
2021/08/16 04:20:21;;;;;;;10.23;2.33;;;18.60;74.20;;;;;;5054246;28;20493;-70
2021/08/16 04:22:47;;;;;;;6.20;2.50;;;18.60;74.20;;;;;;5054387;28;20434;-70
2021/08/16 04:25:16;;;;;;;15.33;3.27;;;18.60;74.30;;;;;;5054287;28;20441;-70
2021/08/16 04:27:43;;;;;;;9.67;2.80;;;18.50;74.30;;;;;;5054216;28;20867;-70
2021/08/16 04:30:12;;;;;;;8.53;3.00;;;18.60;74.60;;;;;;5054255;28;20446;-72
2021/08/16 04:32:39;;;;;;;9.70;2.90;;;18.60;74.60;;;;;;5054159;28;20437;-70
2021/08/16 04:35:07;;;;;;;10.07;2.70;;;18.60;74.60;;;;;;5053796;28;20445;-70
2021/08/16 04:37:37;;;;;;;8.67;2.63;;;18.60;75.40;;;;;;5054092;28;20468;-71
2021/08/16 04:40:05;;;;;;;6.60;2.70;;;18.60;75.20;;;;;;5054624;28;20490;-73
2021/08/16 04:42:32;;;;;;;11.37;2.53;;;18.60;75.50;;;;;;5054718;28;20824;-71
2021/08/16 04:44:58;;;;;;;7.87;2.67;;;18.50;75.30;;;;;;5054428;28;20453;-71
2021/08/16 04:47:25;;;;;;;12.30;3.07;;;18.50;75.30;;;;;;5053620;28;20469;-72
2021/08/16 04:49:54;;;;;;;13.00;2.87;;;18.50;75.70;;;;;;5060943;28;20494;-72
2021/08/16 04:52:20;;;;;;;10.13;3.00;;;18.50;75.90;;;;;;5054009;28;20479;-71
2021/08/16 04:54:48;;;;;;;7.37;3.20;;;18.50;76.20;;;;;;5054072;28;20472;-71
2021/08/16 04:57:15;;;;;;;6.57;3.13;;;18.50;76.30;;;;;;5053472;28;20465;-72
2021/08/16 04:59:42;;;;;;;10.47;2.53;;;18.50;76.60;;;;;;5053534;28;20492;-71
2021/08/16 05:02:08;;;;;;;7.20;3.07;;;18.50;76.60;;;;;;5053970;28;20446;-71
2021/08/16 05:04:35;;;;;;;9.63;3.07;;;18.50;76.40;;;;;;5053706;28;20456;-71
2021/08/16 05:07:02;;;;;;;12.00;2.73;;;18.50;76.60;;;;;;5053672;28;20470;-71
2021/08/16 05:09:30;;;;;;;15.83;3.87;;;18.50;76.70;;;;;;5053637;28;20452;-72
2021/08/16 05:11:58;;;;;;;7.37;2.80;;;18.50;76.80;;;;;;5053694;28;20464;-72
2021/08/16 05:14:24;;;;;;;11.57;2.60;;;18.50;77.30;;;;;;5053567;28;20446;-72
2021/08/16 05:16:51;;;;;;;8.70;2.90;;;18.50;77.20;;;;;;5053554;28;20477;-72
2021/08/16 05:19:18;;;;;;;11.83;3.33;;;18.50;77.50;;;;;;5053363;28;20865;-71
2021/08/16 05:21:44;;;;;;;7.37;3.27;;;18.50;77.60;;;;;;5053764;28;20445;-76
2021/08/16 05:24:11;;;;;;;8.57;2.70;;;18.50;77.40;;;;;;5053810;28;20471;-76
2021/08/16 05:26:38;;;;;;;9.60;3.07;;;18.50;77.70;;;;;;5052830;28;20453;-77
2021/08/16 05:29:06;;;;;;;8.23;3.00;;;18.50;77.90;;;;;;5053736;28;20433;-77
2021/08/16 05:31:32;;;;;;;6.40;2.60;;;18.60;77.80;;;;;;5054254;28;20495;-77
2021/08/16 05:33:59;;;;;;;12.97;3.50;;;18.60;77.30;;;;;;5054610;28;20471;-77
2021/08/16 05:36:26;;;;;;;9.73;3.20;;;18.60;77.50;;;;;;5054673;28;20452;-77
2021/08/16 05:38:53;;;;;;;5.87;2.63;;;18.60;77.40;;;;;;5054556;28;20795;-77
2021/08/16 05:41:19;;;;;;;7.43;2.20;;;18.60;77.60;;;;;;5054981;28;20489;-77
2021/08/16 05:43:46;;;;;;;11.80;2.80;;;18.60;78.00;;;;;;5054977;28;20445;-77
2021/08/16 05:46:14;;;;;;;10.40;2.77;;;18.60;77.60;;;;;;5054307;28;20480;-77
2021/08/16 05:48:41;;;;;;;8.50;3.10;;;18.70;77.50;;;;;;5053966;28;20976;-77
2021/08/16 05:51:07;;;;;;;7.70;2.27;;;18.70;77.70;;;;;;5054373;28;20449;-77
2021/08/16 05:53:34;;;;;;;10.43;3.00;;;18.70;77.80;;;;;;5053685;28;20449;-77
2021/08/16 05:56:01;;;;;;;12.13;2.90;;;18.80;78.00;;;;;;5053310;28;20452;-76
2021/08/16 05:58:27;;;;;;;8.97;3.10;;;18.80;77.60;;;;;;5053020;28;20840;-76
2021/08/16 06:00:54;;;;;;;7.03;2.60;;;18.80;77.10;;;;;;5053220;28;20486;-77
2021/08/16 06:03:23;;;;;;;6.83;2.40;;;18.90;77.30;;;;;;5053586;28;20449;-77
2021/08/16 06:05:50;;;;;;;8.27;2.50;;;18.90;77.00;;;;;;5053681;28;20441;-77
2021/08/16 06:08:16;;;;;;;7.33;2.40;;;18.90;77.20;;;;;;5053526;28;20469;-77
2021/08/16 06:10:43;;;;;;;13.80;2.83;;;18.90;76.60;;;;;;5053106;28;20441;-77
2021/08/16 06:13:10;;;;;;;11.90;3.10;;;18.90;77.10;;;;;;5053470;28;20453;-77
2021/08/16 06:15:38;;;;;;;10.27;3.40;;;18.90;76.70;;;;;;5053145;28;20940;-76
2021/08/16 06:18:05;;;;;;;8.47;2.53;;;19.00;76.70;;;;;;5053401;28;20497;-77
2021/08/16 06:20:33;;;;;;;11.30;3.50;;;19.00;76.70;;;;;;5054913;28;20489;-76
2021/08/16 06:22:59;;;;;;;13.93;3.20;;;19.00;77.20;;;;;;5054847;28;20445;-77
2021/08/16 06:25:26;;;;;;;6.83;3.20;;;19.00;76.50;;;;;;5054637;28;20426;-77
2021/08/16 06:27:53;;;;;;;8.27;2.60;;;19.10;76.70;;;;;;5053510;28;20807;-77
2021/08/16 06:30:19;;;;;;;13.33;3.73;;;19.10;76.70;;;;;;5053625;28;20438;-77
2021/08/16 06:32:46;;;;;;;9.53;3.53;;;19.20;76.30;;;;;;5054922;28;20453;-78
2021/08/16 06:35:14;;;;;;;8.00;2.70;;;19.20;76.10;;;;;;5055708;28;20457;-77
2021/08/16 06:37:45;;;;;;;10.63;2.27;;;19.30;76.30;;;;;;5055385;28;20820;-77
2021/08/16 06:40:12;;;;;;;13.10;2.33;;;19.30;76.20;;;;;;5059463;28;20560;-77
2021/08/16 06:42:39;;;;;;;8.33;3.90;;;19.30;76.20;;;;;;5057654;28;20453;-77
2021/08/16 06:45:06;;;;;;;8.07;3.07;;;19.20;76.30;;;;;;5057233;28;20449;-77
2021/08/16 06:47:34;;;;;;;9.07;2.60;;;19.20;76.60;;;;;;5057240;28;20469;-77
2021/08/16 06:50:00;;;;;;;11.17;4.03;;;19.30;76.40;;;;;;5058321;28;20438;-77
2021/08/16 06:52:27;;;;;;;8.40;2.87;;;19.40;76.30;;;;;;5057853;28;20445;-78
2021/08/16 06:54:55;;;;;;;15.03;3.30;;;19.40;76.00;;;;;;5058454;28;20931;-78
2021/08/16 06:57:26;;;;;;;15.37;3.77;;;19.40;76.20;;;;;;5056814;28;20468;-78
2021/08/16 06:59:53;;;;;;;13.03;3.40;;;19.50;75.90;;;;;;5056099;28;20979;-78
2021/08/16 07:02:20;;;;;;;10.27;3.00;;;19.50;75.20;;;;;;5057581;28;20454;-77
2021/08/16 07:04:46;;;;;;;9.77;3.20;;;19.50;75.90;;;;;;5060510;28;20445;-78
2021/08/16 07:07:13;;;;;;;15.13;3.27;;;19.60;75.80;;;;;;5060766;28;20909;-78
2021/08/16 07:09:40;;;;;;;15.53;4.00;;;19.70;75.50;;;;;;5057724;28;20932;-78
2021/08/16 07:12:08;;;;;;;9.70;2.80;;;19.90;75.20;;;;;;5060169;28;20445;-77
2021/08/16 07:14:35;;;;;;;9.07;2.87;;;19.90;74.30;;;;;;5059982;28;20452;-78
2021/08/16 07:17:02;;;;;;;8.87;3.20;;;20.10;74.30;;;;;;5057592;28;20468;-77
2021/08/16 07:19:28;;;;;;;9.67;3.30;;;20.20;73.90;;;;;;5056746;28;20964;-77
2021/08/16 07:21:55;;;;;;;9.60;2.60;;;20.30;72.80;;;;;;5057052;28;20477;-77
2021/08/16 07:24:22;;;;;;;6.67;2.90;;;20.40;72.80;;;;;;5058245;28;20449;-78
2021/08/16 07:26:50;;;;;;;8.57;3.53;;;20.50;72.20;;;;;;5058159;28;20476;-78
2021/08/16 07:29:18;;;;;;;10.23;2.90;;;20.60;71.90;;;;;;5058540;28;20484;-78
2021/08/16 07:31:45;;;;;;;6.73;3.10;;;20.70;71.60;;;;;;5058275;28;20778;-78
2021/08/16 07:34:12;;;;;;;6.27;2.40;;;20.70;71.60;;;;;;5057135;28;20928;-77
2021/08/16 07:36:38;;;;;;;8.17;2.80;;;20.80;71.30;;;;;;5057573;28;20472;-78
2021/08/16 07:39:05;;;;;;;10.60;3.00;;;20.80;70.80;;;;;;5057705;28;20453;-78
2021/08/16 07:41:32;;;;;;;12.53;3.53;;;20.80;70.80;;;;;;5057930;28;20477;-78
2021/08/16 07:43:58;;;;;;;8.90;2.70;;;20.70;71.60;;;;;;5058104;28;20449;-77
2021/08/16 07:46:26;;;;;;;7.83;2.80;;;20.60;71.70;;;;;;5060841;28;20456;-78
2021/08/16 07:48:53;;;;;;;10.27;2.93;;;20.60;72.90;;;;;;5057758;28;20430;-77
2021/08/16 07:51:20;;;;;;;9.93;3.70;;;20.40;72.80;;;;;;5056986;28;20438;-78
2021/08/16 07:53:47;;;;;;;7.80;2.73;;;20.30;73.30;;;;;;5057021;28;20947;-77
2021/08/16 07:56:14;;;;;;;3.97;3.00;;;20.20;73.90;;;;;;5057470;28;20481;-78
2021/08/16 07:58:40;;;;;;;6.57;2.80;;;20.20;74.50;;;;;;5058093;28;20473;-78
2021/08/16 08:01:07;;;;;;;5.47;2.73;;;20.10;74.90;;;;;;5058466;28;20477;-78
2021/08/16 08:03:35;;;;;;;5.47;2.43;;;20.10;74.60;;;;;;5056666;28;20812;-78
2021/08/16 08:06:02;;;;;;;6.40;2.60;;;20.20;74.80;;;;;;5056879;28;20826;-78
2021/08/16 08:08:28;;;;;;;6.47;2.80;;;20.20;74.80;;;;;;5058853;28;21002;-78
2021/08/16 08:10:55;;;;;;;4.70;2.57;;;20.20;75.10;;;;;;5057057;28;20429;-77
2021/08/16 08:13:22;;;;;;;7.57;3.33;;;20.30;75.60;;;;;;5058037;28;20454;-77
2021/08/16 08:15:49;;;;;;;6.40;2.57;;;20.30;74.00;;;;;;5058871;28;20449;-78
2021/08/16 08:18:15;;;;;;;4.97;2.57;;;20.30;73.80;;;;;;5059869;28;20476;-78
2021/08/16 08:20:44;;;;;;;5.50;2.50;;;20.30;74.60;;;;;;5059530;28;20560;-78
2021/08/16 08:23:11;;;;;;;5.57;2.40;;;20.50;74.90;;;;;;5060267;28;20449;-78
2021/08/16 08:25:39;;;;;;;8.73;2.40;;;20.70;73.70;;;;;;5058319;28;20517;-78
2021/08/16 08:28:11;;;;;;;5.50;2.57;;;20.80;73.60;;;;;;5059820;28;20474;-78
2021/08/16 08:30:39;;;;;;;9.00;2.67;;;20.90;72.80;;;;;;5060214;28;20456;-78
2021/08/16 08:33:06;;;;;;;5.60;2.43;;;21.10;72.50;;;;;;5058955;28;20450;-78
2021/08/16 08:35:32;;;;;;;12.13;2.80;;;21.40;72.60;;;;;;5056849;28;20441;-77
2021/08/16 08:38:01;;;;;;;7.40;2.33;;;21.80;71.70;;;;;;5056261;28;20979;-78
2021/08/16 08:40:27;;;;;;;10.03;2.73;;;22.10;70.30;;;;;;5057386;28;20437;-78
2021/08/16 08:42:55;;;;;;;5.47;2.60;;;22.40;66.90;;;;;;5057155;28;20441;-78
2021/08/16 08:45:22;;;;;;;5.40;2.30;;;22.50;66.20;;;;;;5056056;28;20446;-78
2021/08/16 08:47:49;;;;;;;5.17;2.17;;;22.50;65.60;;;;;;5056818;28;20465;-77
2021/08/16 08:50:17;;;;;;;6.53;2.87;;;22.30;64.60;;;;;;5055767;28;20445;-78
2021/08/16 08:52:44;;;;;;;10.80;3.00;;;22.20;65.40;;;;;;5055058;28;20438;-77
2021/08/16 08:55:13;;;;;;;8.67;2.77;;;22.10;65.70;;;;;;5055452;28;20978;-78
2021/08/16 08:57:40;;;;;;;5.27;2.10;;;22.20;65.40;;;;;;5054373;28;20461;-77
2021/08/16 09:00:15;;;;;;;8.33;3.03;;;22.30;65.70;;;;;;5054069;28;20458;-78
2021/08/16 09:02:42;;;;;;;3.80;1.93;;;22.40;65.40;;;;;;5055957;28;20426;-78
2021/08/16 09:05:09;;;;;;;7.30;2.30;;;22.60;64.80;;;;;;5054864;28;20932;-78
2021/08/16 09:07:39;;;;;;;7.20;2.40;;;22.80;64.70;;;;;;5055376;28;21120;-79
2021/08/16 09:10:11;;;;;;;4.07;2.10;;;23.00;65.40;;;;;;5054983;28;20462;-78
2021/08/16 09:12:40;;;;;;;5.57;1.97;;;23.00;62.20;;;;;;5054934;28;20418;-77
2021/08/16 09:15:16;;;;;;;6.93;2.20;;;23.00;61.70;;;;;;5054277;28;20438;-77
2021/08/16 09:17:43;;;;;;;5.40;2.47;;;22.90;62.40;;;;;;5054357;28;20947;-77
2021/08/16 09:20:17;;;;;;;7.40;2.40;;;22.90;62.50;;;;;;5055256;28;20429;-78
2021/08/16 09:22:55;;;;;;;5.57;2.43;;;22.70;63.10;;;;;;5054346;28;20469;-78
2021/08/16 09:25:22;;;;;;;7.97;2.17;;;22.50;63.30;;;;;;5055929;28;20433;-78
2021/08/16 09:27:51;;;;;;;7.80;3.13;;;22.40;64.60;;;;;;5055778;28;20470;-78
2021/08/16 09:30:17;;;;;;;7.73;3.07;;;22.40;67.50;;;;;;5055593;28;20449;-78
2021/08/16 09:32:44;;;;;;;11.90;3.13;;;22.60;66.80;;;;;;5055750;28;20421;-78
2021/08/16 09:35:14;;;;;;;8.70;2.93;;;22.90;64.50;;;;;;5055454;28;20434;-79
2021/08/16 09:37:41;;;;;;;10.30;3.00;;;23.00;62.20;;;;;;5054799;28;20473;-78
2021/08/16 09:40:11;;;;;;;5.43;2.33;;;23.00;62.50;;;;;;5054745;28;20441;-78
2021/08/16 09:42:42;;;;;;;7.10;2.43;;;23.10;63.30;;;;;;5055450;28;20489;-78
2021/08/16 09:45:11;;;;;;;5.97;2.23;;;23.30;62.90;;;;;;5054906;28;20438;-78
2021/08/16 09:47:43;;;;;;;6.10;2.33;;;23.20;59.80;;;;;;5055859;28;20473;-77
2021/08/16 09:50:11;;;;;;;4.17;1.90;;;23.30;61.10;;;;;;5054492;28;20434;-78
2021/08/16 09:52:38;;;;;;;6.93;2.23;;;23.20;60.60;;;;;;5055580;28;20448;-78
2021/08/16 09:55:06;;;;;;;8.87;3.17;;;23.00;60.60;;;;;;5054929;28;20958;-78
2021/08/16 09:57:33;;;;;;;8.33;3.80;;;22.90;60.60;;;;;;5057680;28;20462;-78
2021/08/16 10:00:00;;;;;;;7.87;2.53;;;22.60;62.10;;;;;;5055215;28;20458;-79
2021/08/16 10:02:28;;;;;;;3.67;2.30;;;22.40;63.10;;;;;;5056910;28;20481;-78
2021/08/16 10:04:57;;;;;;;3.30;2.37;;;22.30;65.40;;;;;;5055850;28;20445;-78
2021/08/16 10:07:28;;;;;;;14.53;2.90;;;22.10;65.60;;;;;;5056125;28;20457;-78
2021/08/16 10:09:59;;;;;;;9.13;2.67;;;21.90;65.80;;;;;;5059025;28;20504;-78
2021/08/16 10:12:26;;;;;;;4.03;2.40;;;21.90;66.70;;;;;;5067787;28;20429;-78
2021/08/16 10:14:55;;;;;;;11.63;3.17;;;21.70;67.50;;;;;;5057539;28;20430;-74
2021/08/16 10:17:26;;;;;;;6.30;3.33;;;21.70;71.60;;;;;;5056673;28;20465;-73
2021/08/16 10:19:58;;;;;;;8.50;3.60;;;21.40;73.40;;;;;;5057187;28;20429;-74
2021/08/16 10:22:25;;;;;;;7.07;3.40;;;21.10;75.60;;;;;;5056313;28;20982;-74
2021/08/16 10:24:51;;;;;;;5.43;3.20;;;20.80;77.30;;;;;;5056913;28;20831;-73
2021/08/16 10:27:18;;;;;;;10.50;4.93;;;20.60;79.40;;;;;;5056500;28;20469;-71
2021/08/16 10:29:45;;;;;;;4.40;2.63;;;20.40;81.60;;;;;;5056567;28;20433;-72
2021/08/16 10:32:19;;;;;;;2.87;1.80;;;20.20;81.50;;;;;;5056124;28;20817;-73
2021/08/16 10:34:46;;;;;;;3.03;1.90;;;19.90;81.10;;;;;;5056548;28;20461;-74
2021/08/16 10:37:17;;;;;;;2.83;2.03;;;19.70;82.00;;;;;;5056300;28;20469;-73
2021/08/16 10:39:46;;;;;;;2.67;1.60;;;19.60;81.80;;;;;;5056388;28;20461;-73
2021/08/16 10:42:14;;;;;;;4.07;1.70;;;19.50;82.70;;;;;;5056216;28;20535;-74
2021/08/16 10:44:44;;;;;;;1.50;1.40;;;19.40;83.20;;;;;;5055907;28;20434;-74
2021/08/16 10:47:23;;;;;;;1.90;1.80;;;19.40;84.00;;;;;;5056068;28;20836;-75
2021/08/16 10:49:50;;;;;;;2.53;1.80;;;19.40;84.10;;;;;;5056096;28;20437;-75
2021/08/16 10:52:22;;;;;;;2.90;1.70;;;19.50;84.80;;;;;;5055860;28;20924;-75
2021/08/16 10:54:49;;;;;;;5.57;2.30;;;19.70;85.30;;;;;;5055957;28;20448;-75
2021/08/16 10:57:17;;;;;;;1.93;1.70;;;20.10;84.60;;;;;;5055918;28;20501;-76
2021/08/16 10:59:45;;;;;;;4.37;1.97;;;20.70;83.90;;;;;;5055742;28;20465;-76
2021/08/16 11:02:12;;;;;;;1.57;1.47;;;21.60;80.30;;;;;;5056245;28;20492;-77
2021/08/16 11:04:44;;;;;;;2.10;1.90;;;22.40;74.70;;;;;;5055936;28;20871;-78
2021/08/16 11:07:12;;;;;;;4.47;2.23;;;22.80;70.50;;;;;;5056640;28;20496;-78
2021/08/16 11:09:40;;;;;;;2.10;1.70;;;22.90;69.60;;;;;;5057594;28;20520;-78
2021/08/16 11:12:11;;;;;;;3.23;2.17;;;22.80;70.10;;;;;;5056775;28;20882;-78
2021/08/16 11:14:40;;;;;;;2.33;2.00;;;22.50;70.50;;;;;;5056402;28;20462;-78
2021/08/16 11:17:07;;;;;;;4.73;2.47;;;22.10;71.10;;;;;;5056111;28;20465;-78
2021/08/16 11:19:42;;;;;;;2.67;2.47;;;21.80;71.50;;;;;;5056162;28;20444;-78
2021/08/16 11:22:09;;;;;;;4.03;2.07;;;21.60;73.50;;;;;;5055885;28;20865;-78
2021/08/16 11:24:37;;;;;;;5.53;2.70;;;21.60;75.10;;;;;;5055533;28;20442;-77
2021/08/16 11:27:07;;;;;;;3.77;2.63;;;21.60;73.20;;;;;;5055841;28;20473;-78
2021/08/16 11:29:35;;;;;;;2.63;2.40;;;21.60;73.50;;;;;;5056034;28;20498;-78
2021/08/16 11:32:05;;;;;;;4.47;3.30;;;21.50;73.10;;;;;;5056041;28;20426;-78
2021/08/16 11:34:44;;;;;;;5.20;3.00;;;21.40;74.00;;;;;;5055981;28;20638;-77
2021/08/16 11:37:11;;;;;;;4.10;2.80;;;21.20;74.10;;;;;;5055934;28;20484;-78
2021/08/16 11:39:38;;;;;;;9.37;4.00;;;21.10;75.00;;;;;;5055882;28;20940;-77
2021/08/16 11:42:07;;;;;;;5.07;3.33;;;21.00;75.70;;;;;;5056894;28;20535;-78
2021/08/16 11:44:34;;;;;;;6.10;3.90;;;20.90;75.50;;;;;;5057071;28;20515;-78
2021/08/16 11:47:01;;;;;;;10.30;4.70;;;20.60;75.10;;;;;;5055816;28;20465;-77
2021/08/16 11:49:34;;;;;;;3.90;3.50;;;20.50;76.70;;;;;;5055430;28;20434;-78
2021/08/16 11:52:01;;;;;;;5.10;3.67;;;20.20;78.40;;;;;;5055371;28;20430;-77
2021/08/16 11:54:29;;;;;;;7.17;4.27;;;20.10;77.00;;;;;;5055652;28;20806;-78
2021/08/16 11:56:57;;;;;;;4.80;4.03;;;19.90;77.30;;;;;;5055699;28;20469;-78
2021/08/16 11:59:26;;;;;;;5.43;3.93;;;19.80;79.40;;;;;;5055733;28;20833;-78
2021/08/16 12:01:56;;;;;;;7.40;3.93;;;19.70;79.50;;;;;;5055880;28;20477;-78
2021/08/16 12:04:24;;;;;;;7.43;4.50;;;19.60;80.10;;;;;;5055992;28;20955;-78
2021/08/16 12:06:52;;;;;;;6.33;3.87;;;19.60;80.70;;;;;;5056017;28;20469;-78
2021/08/16 12:09:19;;;;;;;6.40;4.70;;;19.60;81.10;;;;;;5055354;28;20433;-78
2021/08/16 12:11:57;;;;;;;6.10;4.13;;;19.60;81.80;;;;;;5055311;28;20452;-77
2021/08/16 12:14:29;;;;;;;6.43;3.80;;;19.60;81.80;;;;;;5055347;28;20488;-78
2021/08/16 12:16:56;;;;;;;8.03;3.70;;;19.70;82.10;;;;;;5056710;28;20991;-78
2021/08/16 12:19:23;;;;;;;7.57;4.43;;;19.70;79.50;;;;;;5056019;28;20441;-77
2021/08/16 12:22:02;;;;;;;7.53;4.93;;;19.70;79.30;;;;;;5054802;28;20477;-78
2021/08/16 12:24:28;;;;;;;8.20;3.60;;;19.60;79.30;;;;;;5055585;28;20978;-78
2021/08/16 12:27:00;;;;;;;7.90;5.30;;;19.60;79.90;;;;;;5054759;28;20516;-77
2021/08/16 12:29:29;;;;;;;6.10;4.50;;;19.60;80.50;;;;;;5054871;28;20429;-77
2021/08/16 12:31:56;;;;;;;8.13;4.47;;;19.60;80.40;;;;;;5054730;28;20456;-78
2021/08/16 12:34:33;;;;;;;7.77;4.80;;;19.70;80.90;;;;;;5055529;28;20449;-77
2021/08/16 12:37:00;;;;;;;6.80;4.90;;;19.70;80.30;;;;;;5054651;28;20508;-77
2021/08/16 12:39:33;;;;;;;6.30;4.77;;;19.70;80.60;;;;;;5055123;28;20454;-77
2021/08/16 12:42:07;;;;;;;5.67;4.07;;;19.70;81.20;;;;;;5054888;28;20489;-76
2021/08/16 12:44:37;;;;;;;6.97;4.07;;;19.70;81.40;;;;;;5053770;28;20500;-76
2021/08/16 12:47:05;;;;;;;6.07;4.70;;;19.70;81.40;;;;;;5053300;28;20473;-77